createdAt,value
2022-08-20T00:00:39.992Z,17.42
2022-08-20T00:03:21.356Z,18.20
2022-08-20T00:05:58.838Z,18.10
2022-08-20T00:08:26.832Z,20.25
2022-08-20T00:10:55.699Z,19.60
2022-08-20T00:13:32.393Z,20.20
2022-08-20T00:15:59.638Z,16.65
2022-08-20T00:18:26.539Z,17.83
2022-08-20T00:20:54.376Z,16.73
2022-08-20T00:23:21.820Z,17.73
2022-08-20T00:25:49.147Z,17.75
2022-08-20T00:28:16.415Z,18.40
2022-08-20T00:30:45.395Z,19.42
2022-08-20T00:33:15.106Z,19.30
2022-08-20T00:35:44.670Z,21.35
2022-08-20T00:38:11.740Z,22.50
2022-08-20T00:40:42.619Z,23.70
2022-08-20T00:43:30.522Z,19.85
2022-08-20T00:45:58.337Z,22.15
2022-08-20T00:48:28.974Z,22.45
2022-08-20T00:51:03.264Z,22.17
2022-08-20T00:53:30.257Z,22.55
2022-08-20T00:55:57.103Z,21.83
2022-08-20T00:58:24.013Z,23.58
2022-08-20T01:00:50.811Z,23.38
2022-08-20T01:03:20.519Z,24.75
2022-08-20T01:05:50.644Z,24.30
2022-08-20T01:08:19.955Z,23.40
2022-08-20T01:10:49.135Z,22.77
2022-08-20T01:13:18.998Z,23.60
2022-08-20T01:15:47.192Z,18.50
2022-08-20T01:18:16.986Z,22.42
2022-08-20T01:20:48.318Z,16.77
2022-08-20T01:23:32.723Z,19.25
2022-08-20T01:26:28.930Z,19.20
2022-08-20T01:29:08.501Z,19.00
2022-08-20T01:31:38.127Z,18.67
2022-08-20T01:34:07.970Z,18.15
2022-08-20T01:36:46.259Z,18.83
2022-08-20T01:39:16.885Z,19.23
2022-08-20T01:42:08.365Z,18.90
2022-08-20T01:44:37.321Z,19.38
2022-08-20T01:49:39.860Z,16.77
2022-08-20T01:52:10.136Z,19.65
2022-08-20T01:54:36.846Z,20.65
2022-08-20T01:57:14.899Z,20.70
2022-08-20T01:59:42.346Z,19.15
2022-08-20T02:02:10.985Z,20.27
2022-08-20T02:04:37.722Z,19.92
2022-08-20T02:07:06.248Z,18.77
2022-08-20T02:09:36.938Z,17.73
2022-08-20T02:12:06.165Z,16.85
2022-08-20T02:14:34.155Z,18.23
2022-08-20T02:17:01.544Z,22.52
2022-08-20T02:19:38.535Z,18.80
2022-08-20T02:22:21.247Z,18.45
2022-08-20T02:24:48.492Z,20.55
2022-08-20T02:27:15.566Z,20.92
2022-08-20T02:29:42.265Z,22.45
2022-08-20T02:32:23.682Z,20.17
2022-08-20T02:34:55.872Z,21.85
2022-08-20T02:37:22.545Z,22.05
2022-08-20T02:39:49.337Z,21.98
2022-08-20T02:42:16.967Z,23.77
2022-08-20T02:44:43.658Z,21.58
2022-08-20T02:47:10.426Z,20.75
2022-08-20T02:49:37.236Z,19.90
2022-08-20T02:52:04.143Z,20.58
2022-08-20T02:54:30.913Z,19.27
2022-08-20T02:56:57.658Z,21.23
2022-08-20T02:59:24.338Z,21.85
2022-08-20T03:01:59.334Z,22.08
2022-08-20T03:04:30.477Z,23.13
2022-08-20T03:06:58.560Z,22.98
2022-08-20T03:09:25.298Z,20.45
2022-08-20T03:11:52.954Z,21.17
2022-08-20T03:14:19.996Z,26.15
2022-08-20T03:16:46.697Z,35.00
2022-08-20T03:19:13.914Z,36.38
2022-08-20T03:21:41.054Z,39.40
2022-08-20T03:24:07.865Z,38.60
2022-08-20T03:26:34.570Z,36.17
2022-08-20T03:29:01.651Z,35.08
2022-08-20T03:31:28.458Z,33.83
2022-08-20T03:33:55.466Z,31.75
2022-08-20T03:36:28.343Z,32.13
2022-08-20T03:39:00.842Z,32.47
2022-08-20T03:41:28.780Z,31.90
2022-08-20T03:43:55.878Z,35.30
2022-08-20T03:46:23.795Z,34.78
2022-08-20T03:48:56.436Z,37.00
2022-08-20T03:51:28.018Z,39.22
2022-08-20T03:53:54.931Z,39.38
2022-08-20T03:56:21.682Z,41.08
2022-08-20T03:58:48.364Z,41.53
2022-08-20T04:01:44.196Z,40.85
2022-08-20T04:04:01.785Z,43.80
2022-08-20T04:06:29.665Z,42.25
2022-08-20T04:08:56.869Z,46.42
2022-08-20T04:11:24.379Z,48.97
2022-08-20T04:13:51.475Z,50.15
2022-08-20T04:16:19.376Z,49.33
2022-08-20T04:19:01.329Z,46.33
2022-08-20T04:21:30.945Z,48.58
2022-08-20T04:23:59.566Z,46.60
2022-08-20T04:26:26.267Z,45.97
2022-08-20T04:28:53.140Z,44.63
2022-08-20T04:31:24.862Z,47.72
2022-08-20T04:33:51.899Z,48.33
2022-08-20T04:36:18.659Z,50.83
2022-08-20T04:38:49.948Z,51.80
2022-08-20T04:41:22.735Z,55.95
2022-08-20T04:43:52.049Z,57.00
2022-08-20T04:46:19.458Z,53.95
2022-08-20T04:48:49.188Z,51.63
2022-08-20T04:51:18.632Z,50.10
2022-08-20T04:53:52.431Z,49.67
2022-08-20T04:56:26.120Z,46.42
2022-08-20T04:58:54.911Z,40.78
2022-08-20T05:01:23.724Z,47.00
2022-08-20T05:03:53.641Z,43.97
2022-08-20T05:06:20.950Z,40.75
2022-08-20T05:08:47.787Z,39.40
2022-08-20T05:11:36.143Z,40.45
2022-08-20T05:16:28.236Z,38.85
2022-08-20T05:18:54.953Z,40.17
2022-08-20T05:21:21.754Z,35.65
2022-08-20T05:23:51.556Z,38.63
2022-08-20T05:26:20.319Z,34.85
2022-08-20T05:31:31.529Z,32.08
2022-08-20T05:34:09.782Z,30.55
2022-08-20T05:36:49.403Z,34.33
2022-08-20T05:39:18.428Z,32.42
2022-08-20T05:41:45.411Z,34.45
2022-08-20T05:44:13.606Z,32.47
2022-08-20T05:46:42.773Z,33.20
2022-08-20T05:49:20.010Z,30.73
2022-08-20T05:51:47.628Z,32.30
2022-08-20T05:54:15.001Z,31.13
2022-08-20T05:56:42.660Z,34.00
2022-08-20T05:59:10.361Z,32.88
2022-08-20T06:01:38.606Z,27.40
2022-08-20T06:04:24.486Z,31.00
2022-08-20T06:07:02.075Z,31.25
2022-08-20T06:09:32.306Z,27.73
2022-08-20T06:12:01.458Z,27.15
2022-08-20T06:14:28.448Z,26.17
2022-08-20T06:16:57.815Z,25.60
2022-08-20T06:19:27.137Z,28.40
2022-08-20T06:21:59.419Z,28.23
2022-08-20T06:24:27.064Z,22.88
2022-08-20T06:26:58.757Z,22.95
2022-08-20T06:29:26.145Z,18.52
2022-08-20T06:32:11.703Z,20.48
2022-08-20T06:34:38.433Z,17.85
2022-08-20T06:37:23.354Z,13.73
2022-08-20T06:40:01.058Z,14.23
2022-08-20T06:42:27.864Z,15.98
2022-08-20T06:44:54.588Z,13.07
2022-08-20T06:47:21.569Z,12.60
2022-08-20T06:49:48.707Z,11.13
2022-08-20T06:52:17.245Z,13.27
2022-08-20T06:57:11.239Z,10.48
2022-08-20T06:59:37.922Z,8.13
2022-08-20T07:02:05.825Z,8.73
2022-08-20T07:04:32.521Z,7.97
2022-08-20T07:06:59.514Z,11.23
2022-08-20T07:09:27.425Z,9.35
2022-08-20T07:11:54.515Z,9.77
2022-08-20T07:14:22.262Z,6.32
2022-08-20T07:16:49.601Z,9.75
2022-08-20T07:19:16.279Z,7.47
2022-08-20T07:21:42.978Z,6.47
2022-08-20T07:24:10.108Z,6.65
2022-08-20T07:26:36.828Z,6.25
2022-08-20T07:29:04.220Z,5.93
2022-08-20T07:31:49.459Z,7.13
2022-08-20T07:34:16.869Z,6.53
2022-08-20T07:36:48.481Z,7.13
2022-08-20T07:39:15.406Z,6.30
2022-08-20T07:41:43.613Z,6.53
2022-08-20T07:44:21.658Z,6.80
2022-08-20T07:46:59.208Z,5.85
2022-08-20T07:49:25.919Z,7.28
2022-08-20T07:51:52.594Z,7.07
2022-08-20T07:54:19.289Z,6.75
2022-08-20T07:56:46.005Z,5.28
2022-08-20T07:59:13.123Z,4.93
2022-08-20T08:01:39.822Z,9.25
2022-08-20T08:04:06.545Z,5.45
2022-08-20T08:06:33.305Z,6.63
2022-08-20T08:09:10.543Z,7.68
2022-08-20T08:11:44.942Z,7.25
2022-08-20T08:14:14.365Z,6.35
2022-08-20T08:16:44.770Z,7.10
2022-08-20T08:19:14.346Z,6.03
2022-08-20T08:21:41.466Z,7.95
2022-08-20T08:24:08.269Z,8.57
2022-08-20T08:26:35.057Z,6.07
2022-08-20T08:29:02.659Z,7.68
2022-08-20T08:31:29.579Z,8.43
2022-08-20T08:33:56.900Z,7.78
2022-08-20T08:36:26.370Z,6.30
2022-08-20T08:38:55.468Z,7.90
2022-08-20T08:41:32.166Z,7.35
2022-08-20T08:44:14.888Z,8.57
2022-08-20T08:46:46.617Z,8.30
2022-08-20T08:49:18.384Z,6.15
2022-08-20T08:51:48.707Z,6.72
2022-08-20T08:54:24.840Z,6.15
2022-08-20T08:56:52.755Z,8.27
2022-08-20T08:59:22.407Z,8.10
2022-08-20T09:01:57.148Z,7.40
2022-08-20T09:04:31.669Z,7.35
2022-08-20T09:06:59.802Z,6.97
2022-08-20T09:09:29.164Z,7.75
2022-08-20T09:12:07.098Z,61.70
2022-08-20T09:14:34.621Z,8.25
2022-08-20T09:17:01.459Z,8.73
2022-08-20T09:19:28.555Z,5.82
2022-08-20T09:21:55.267Z,7.85
2022-08-20T09:24:22.127Z,6.95
2022-08-20T09:26:48.825Z,8.10
2022-08-20T09:29:15.677Z,8.00
2022-08-20T09:31:43.581Z,8.52
2022-08-20T09:34:11.949Z,7.28
2022-08-20T09:36:38.758Z,7.53
2022-08-20T09:39:05.453Z,8.02
2022-08-20T09:41:34.370Z,7.80
2022-08-20T09:44:01.773Z,6.78
2022-08-20T09:46:28.490Z,9.32
2022-08-20T09:48:55.576Z,6.38
2022-08-20T09:51:22.457Z,8.93
2022-08-20T09:53:49.353Z,9.15
2022-08-20T09:56:16.997Z,7.53
2022-08-20T09:58:52.210Z,7.25
2022-08-20T10:01:20.876Z,8.68
2022-08-20T10:03:49.263Z,8.35
2022-08-20T10:06:17.931Z,9.13
2022-08-20T10:11:15.121Z,10.32
2022-08-20T10:13:42.115Z,10.13
2022-08-20T10:16:09.420Z,9.55
2022-08-20T10:18:36.592Z,7.80
2022-08-20T10:21:04.230Z,11.77
2022-08-20T10:23:30.892Z,11.73
2022-08-20T10:25:57.611Z,12.80
2022-08-20T10:28:24.285Z,10.50
2022-08-20T10:30:51.126Z,15.23
2022-08-20T10:33:17.905Z,8.27
2022-08-20T10:35:44.583Z,12.40
2022-08-20T10:38:11.278Z,15.55
2022-08-20T10:40:38.058Z,10.60
2022-08-20T10:43:05.174Z,13.77
2022-08-20T10:45:31.878Z,14.30
2022-08-20T10:48:02.278Z,10.75
2022-08-20T10:50:30.203Z,10.55
2022-08-20T10:52:57.689Z,11.15
2022-08-20T10:55:24.446Z,7.70
2022-08-20T10:57:51.158Z,12.70
2022-08-20T11:00:19.099Z,9.77
2022-08-20T11:02:45.845Z,10.88
2022-08-20T11:05:12.712Z,7.82
2022-08-20T11:07:49.881Z,10.95
2022-08-20T11:10:27.881Z,9.20
2022-08-20T11:12:54.900Z,10.70
2022-08-20T11:15:21.578Z,11.35
2022-08-20T11:17:48.289Z,8.20
2022-08-20T11:20:17.796Z,12.00
2022-08-20T11:22:44.511Z,9.82
2022-08-20T11:25:11.208Z,7.05
2022-08-20T11:27:41.165Z,7.22
2022-08-20T11:30:11.916Z,9.65
2022-08-20T11:32:38.731Z,9.13
2022-08-20T11:35:24.423Z,8.00
2022-08-20T11:37:55.698Z,8.45
2022-08-20T11:40:23.015Z,7.90
2022-08-20T11:43:13.149Z,7.38
2022-08-20T11:45:37.439Z,9.00
2022-08-20T11:48:04.873Z,8.13
2022-08-20T11:50:31.630Z,9.38
2022-08-20T11:52:58.523Z,6.63
2022-08-20T11:55:28.468Z,8.45
2022-08-20T11:58:00.461Z,6.72
2022-08-20T12:00:32.342Z,9.43
2022-08-20T12:02:59.552Z,8.68
2022-08-20T12:05:27.490Z,8.95
2022-08-20T12:07:54.202Z,8.93
2022-08-20T12:10:23.087Z,8.15
2022-08-20T12:12:49.918Z,8.57
2022-08-20T12:15:16.725Z,9.20
2022-08-20T12:17:43.425Z,11.43
2022-08-20T12:20:13.109Z,8.68
2022-08-20T12:22:40.385Z,8.73
2022-08-20T12:25:08.617Z,9.60
2022-08-20T12:27:36.914Z,8.48
2022-08-20T12:30:13.060Z,8.82
2022-08-20T12:32:40.278Z,8.50
2022-08-20T12:35:08.921Z,9.07
2022-08-20T12:40:08.186Z,10.10
2022-08-20T12:42:35.030Z,9.70
2022-08-20T12:45:01.906Z,8.23
2022-08-20T12:47:34.549Z,10.18
2022-08-20T12:50:05.020Z,9.07
2022-08-20T12:52:32.623Z,8.98
2022-08-20T12:55:00.187Z,8.93
2022-08-20T12:57:29.821Z,11.55
2022-08-20T12:59:59.168Z,10.88
2022-08-20T13:02:26.150Z,9.27
2022-08-20T13:04:52.911Z,8.93
2022-08-20T13:07:20.106Z,8.77
2022-08-20T13:09:46.930Z,8.77
2022-08-20T13:12:14.501Z,9.05
2022-08-20T13:14:41.947Z,8.15
2022-08-20T13:17:09.043Z,9.50
2022-08-20T13:19:37.042Z,9.18
2022-08-20T13:22:04.264Z,9.70
2022-08-20T13:24:31.325Z,7.40
2022-08-20T13:27:09.220Z,8.95
2022-08-20T13:29:36.481Z,8.68
2022-08-20T13:32:03.941Z,9.13
2022-08-20T13:34:30.706Z,8.90
2022-08-20T13:36:57.525Z,8.55
2022-08-20T13:39:24.305Z,9.35
2022-08-20T13:41:51.042Z,8.82
2022-08-20T13:44:18.440Z,9.52
2022-08-20T13:46:45.261Z,9.05
2022-08-20T13:49:11.965Z,9.20
2022-08-20T13:51:38.644Z,9.52
2022-08-20T13:54:05.355Z,9.02
2022-08-20T13:56:37.444Z,9.68
2022-08-20T13:59:04.189Z,8.73
2022-08-20T14:01:31.195Z,9.70
2022-08-20T14:03:58.050Z,10.23
2022-08-20T14:06:25.171Z,10.07
2022-08-20T14:08:51.945Z,9.25
2022-08-20T14:11:19.344Z,9.52
2022-08-20T14:13:46.125Z,9.70
2022-08-20T14:16:21.435Z,8.90
2022-08-20T14:18:56.282Z,8.75
2022-08-20T14:21:23.030Z,9.18
2022-08-20T14:23:49.734Z,8.32
2022-08-20T14:26:16.415Z,10.30
2022-08-20T14:28:43.113Z,7.35
2022-08-20T14:31:09.773Z,9.15
2022-08-20T14:33:37.777Z,6.80
2022-08-20T14:36:06.073Z,8.75
2022-08-20T14:38:32.854Z,8.80
2022-08-20T14:40:59.533Z,9.77
2022-08-20T14:43:26.282Z,8.93
2022-08-20T14:45:52.983Z,7.60
2022-08-20T14:48:19.799Z,9.90
2022-08-20T14:50:46.581Z,8.25
2022-08-20T14:53:13.260Z,11.43
2022-08-20T14:55:40.304Z,9.07
2022-08-20T14:58:09.345Z,9.13
2022-08-20T15:00:36.309Z,8.60
2022-08-20T15:03:03.321Z,9.50
2022-08-20T15:05:30.129Z,9.38
2022-08-20T15:07:57.720Z,9.40
2022-08-20T15:10:29.112Z,7.30
2022-08-20T15:12:56.028Z,9.32
2022-08-20T15:15:23.088Z,8.52
2022-08-20T15:17:55.501Z,8.95
2022-08-20T15:20:25.404Z,6.95
2022-08-20T15:22:52.398Z,8.88
2022-08-20T15:25:22.053Z,9.00
2022-08-20T15:27:49.136Z,9.38
2022-08-20T15:30:19.118Z,8.98
2022-08-20T15:32:46.077Z,8.40
2022-08-20T15:35:13.380Z,8.07
2022-08-20T15:37:46.312Z,8.35
2022-08-20T15:40:16.144Z,9.18
2022-08-20T15:42:43.491Z,8.75
2022-08-20T15:45:14.512Z,8.80
2022-08-20T15:48:01.292Z,10.00
2022-08-20T15:50:34.108Z,8.73
2022-08-20T15:53:32.396Z,9.48
2022-08-20T15:56:14.531Z,8.98
2022-08-20T15:59:19.761Z,8.98
2022-08-20T16:01:49.157Z,10.00
2022-08-20T16:04:54.113Z,10.20
2022-08-20T16:07:26.849Z,8.95
2022-08-20T16:10:19.158Z,7.65
2022-08-20T16:12:49.872Z,8.82
2022-08-20T16:15:29.350Z,10.30
2022-08-20T16:18:20.946Z,9.07
2022-08-20T16:20:49.561Z,9.75
2022-08-20T16:23:17.827Z,7.63
2022-08-20T16:26:13.411Z,8.98
2022-08-20T16:28:49.799Z,10.30
2022-08-20T16:31:21.123Z,9.57
2022-08-20T16:34:03.713Z,10.30
2022-08-20T16:36:57.085Z,11.90
2022-08-20T16:39:39.416Z,7.72
2022-08-20T16:42:08.510Z,10.38
2022-08-20T16:44:42.653Z,10.38
2022-08-20T16:47:17.461Z,9.77
2022-08-20T16:49:53.117Z,10.07
2022-08-20T16:52:19.777Z,11.13
2022-08-20T16:54:46.484Z,9.40
2022-08-20T16:57:17.190Z,9.43
2022-08-20T16:59:57.432Z,9.82
2022-08-20T17:02:25.044Z,11.20
2022-08-20T17:04:59.471Z,12.93
2022-08-20T17:07:49.428Z,12.27
2022-08-20T17:10:25.186Z,8.77
2022-08-20T17:12:54.675Z,10.00
2022-08-20T17:15:25.655Z,10.07
2022-08-20T17:17:55.761Z,10.30
2022-08-20T17:20:24.929Z,9.80
2022-08-20T17:23:09.217Z,10.45
2022-08-20T17:28:15.930Z,7.60
2022-08-20T17:30:43.760Z,12.52
2022-08-20T17:33:33.459Z,11.30
2022-08-20T17:36:21.111Z,10.32
2022-08-20T17:38:54.481Z,10.90
2022-08-20T17:41:26.046Z,10.02
2022-08-20T17:44:02.382Z,10.50
2022-08-20T17:46:32.163Z,11.00
2022-08-20T17:49:00.077Z,10.90
2022-08-20T17:51:52.661Z,9.75
2022-08-20T17:54:29.472Z,9.48
2022-08-20T17:57:00.678Z,9.70
2022-08-20T18:00:01.089Z,10.95
2022-08-20T18:02:21.088Z,10.23
2022-08-20T18:04:49.465Z,11.77
2022-08-20T18:07:25.668Z,11.07
2022-08-20T18:10:04.287Z,11.35
2022-08-20T18:12:40.792Z,10.32
2022-08-20T18:15:11.765Z,10.65
2022-08-20T18:18:08.134Z,11.23
2022-08-20T18:20:49.205Z,8.40
2022-08-20T18:26:13.770Z,10.40
2022-08-20T18:28:47.482Z,10.07
2022-08-20T18:31:34.003Z,10.43
2022-08-20T18:34:13.202Z,13.00
2022-08-20T18:36:40.056Z,8.57
2022-08-20T18:39:07.885Z,15.45
2022-08-20T18:41:57.854Z,12.05
2022-08-20T18:44:45.469Z,11.05
2022-08-20T18:47:38.777Z,8.75
2022-08-20T18:50:20.664Z,10.13
2022-08-20T18:53:11.141Z,10.65
2022-08-20T18:55:44.039Z,8.27
2022-08-20T18:58:32.490Z,11.85
2022-08-20T19:01:00.973Z,13.35
2022-08-20T19:03:48.886Z,12.68
2022-08-20T19:06:15.517Z,14.55
2022-08-20T19:08:47.634Z,11.32
2022-08-20T19:11:38.935Z,14.77
2022-08-20T19:14:34.818Z,14.98
2022-08-20T19:17:18.002Z,11.93
2022-08-20T19:19:44.706Z,13.93
2022-08-20T19:22:20.958Z,14.23
2022-08-20T19:24:53.933Z,12.77
2022-08-20T19:27:23.721Z,12.18
2022-08-20T19:29:56.634Z,12.70
2022-08-20T19:32:28.947Z,12.10
2022-08-20T19:35:01.535Z,11.82
2022-08-20T19:37:51.149Z,11.43
2022-08-20T19:40:28.767Z,11.20
2022-08-20T19:42:57.482Z,13.30
2022-08-20T19:48:03.494Z,10.82
2022-08-20T19:51:04.253Z,16.42
2022-08-20T19:53:34.186Z,11.00
2022-08-20T19:56:12.441Z,11.63
2022-08-20T19:58:39.950Z,11.05
2022-08-20T20:01:15.692Z,10.90
2022-08-20T20:03:42.365Z,13.40
2022-08-20T20:06:17.732Z,9.15
2022-08-20T20:08:50.541Z,10.32
2022-08-20T20:11:19.654Z,10.13
2022-08-20T20:13:46.724Z,9.95
2022-08-20T20:16:14.420Z,10.52
2022-08-20T20:18:41.702Z,10.18
2022-08-20T20:21:23.089Z,11.20
2022-08-20T20:24:08.646Z,9.80
2022-08-20T20:26:39.029Z,10.50
2022-08-20T20:29:09.946Z,11.02
2022-08-20T20:31:50.231Z,12.23
2022-08-20T20:34:24.653Z,11.48
2022-08-20T20:37:05.280Z,10.65
2022-08-20T20:39:36.528Z,11.57
2022-08-20T20:42:07.075Z,11.13
2022-08-20T20:44:39.382Z,11.77
2022-08-20T20:47:09.818Z,10.93
2022-08-20T20:49:57.977Z,12.48
2022-08-20T20:52:36.875Z,10.88
2022-08-20T20:55:11.786Z,11.95
2022-08-20T21:00:17.509Z,11.63
2022-08-20T21:02:45.484Z,13.20
2022-08-20T21:05:15.243Z,13.05
2022-08-20T21:08:01.165Z,11.98
2022-08-20T21:10:32.565Z,12.32
2022-08-20T21:12:59.946Z,11.45
2022-08-20T21:15:27.645Z,11.95
2022-08-20T21:17:54.692Z,12.07
2022-08-20T21:20:22.528Z,9.75
2022-08-20T21:22:49.208Z,13.48
2022-08-20T21:25:15.969Z,13.52
2022-08-20T21:27:46.852Z,13.45
2022-08-20T21:30:14.768Z,12.88
2022-08-20T21:32:41.669Z,13.68
2022-08-20T21:35:09.871Z,10.48
2022-08-20T21:37:36.708Z,13.98
2022-08-20T21:40:05.470Z,13.45
2022-08-20T21:44:59.260Z,12.35
2022-08-20T21:47:26.733Z,12.40
2022-08-20T21:49:53.978Z,12.15
2022-08-20T21:52:20.851Z,10.43
2022-08-20T21:54:47.550Z,13.93
2022-08-20T21:57:27.110Z,15.10
2022-08-20T21:59:54.400Z,12.02
2022-08-20T22:02:21.910Z,14.55
2022-08-20T22:04:53.825Z,15.85
2022-08-20T22:09:47.617Z,14.07
2022-08-20T22:12:20.146Z,15.02
2022-08-20T22:14:46.956Z,11.07
2022-08-20T22:17:14.615Z,14.63
2022-08-20T22:19:41.891Z,13.07
2022-08-20T22:22:10.835Z,12.57
2022-08-20T22:24:38.130Z,12.23
2022-08-20T22:27:05.993Z,14.70
2022-08-20T22:29:32.953Z,17.13
2022-08-20T22:32:00.005Z,17.27
2022-08-20T22:34:29.313Z,18.17
2022-08-20T22:36:57.332Z,14.38
2022-08-20T22:39:24.078Z,17.13
2022-08-20T22:41:50.814Z,17.50
2022-08-20T22:44:17.530Z,16.42
2022-08-20T22:46:48.257Z,15.60
2022-08-20T22:49:18.282Z,16.27
2022-08-20T22:51:45.406Z,17.92
2022-08-20T22:54:16.555Z,17.42
2022-08-20T22:56:43.306Z,16.38
2022-08-20T22:59:10.613Z,16.92
2022-08-20T23:01:37.935Z,17.30
2022-08-20T23:04:14.289Z,16.33
2022-08-20T23:06:41.150Z,17.00
2022-08-20T23:09:07.896Z,16.98
2022-08-20T23:11:39.611Z,17.67
2022-08-20T23:17:03.749Z,16.38
2022-08-20T23:19:30.814Z,15.48
2022-08-20T23:21:57.561Z,15.00
2022-08-20T23:24:24.863Z,13.80
2022-08-20T23:26:53.184Z,10.77
2022-08-20T23:29:22.280Z,13.48
2022-08-20T23:31:52.154Z,12.55
2022-08-20T23:34:18.961Z,11.95
2022-08-20T23:36:45.649Z,13.75
2022-08-20T23:39:12.885Z,15.80
2022-08-20T23:41:47.075Z,15.02
2022-08-20T23:44:25.448Z,15.73
2022-08-20T23:46:55.356Z,18.27
2022-08-20T23:49:22.119Z,18.52
2022-08-20T23:51:48.820Z,20.02
2022-08-20T23:54:15.532Z,19.23
2022-08-20T23:56:42.265Z,18.58
2022-08-20T23:59:08.934Z,19.70
